sensor_id;sensor_type;location;lat;lon;timestamp;pressure;altitude;pressure_sealevel;temperature;humidity
61710;BME280;47633;51.494;5.386;2023-04-01T00:00:29;99077.47;;;19.14;47.11
61710;BME280;47633;51.494;5.386;2023-04-01T00:02:54;99073.84;;;19.15;46.91
61710;BME280;47633;51.494;5.386;2023-04-01T00:05:20;99075.66;;;19.15;46.98
61710;BME280;47633;51.494;5.386;2023-04-01T00:07:46;99082.75;;;19.14;46.90
61710;BME280;47633;51.494;5.386;2023-04-01T00:10:12;99080.94;;;19.15;46.80
61710;BME280;47633;51.494;5.386;2023-04-01T00:12:38;99080.28;;;19.13;46.81
61710;BME280;47633;51.494;5.386;2023-04-01T00:15:05;99075.00;;;19.13;46.93
61710;BME280;47633;51.494;5.386;2023-04-01T00:17:31;99074.19;;;19.12;46.95
61710;BME280;47633;51.494;5.386;2023-04-01T00:19:57;99088.38;;;19.11;47.00
61710;BME280;47633;51.494;5.386;2023-04-01T00:22:23;99082.28;;;19.11;46.84
61710;BME280;47633;51.494;5.386;2023-04-01T00:24:48;99086.09;;;19.08;46.81
61710;BME280;47633;51.494;5.386;2023-04-01T00:27:14;99075.19;;;19.11;47.01
61710;BME280;47633;51.494;5.386;2023-04-01T00:29:44;99078.16;;;19.08;46.96
61710;BME280;47633;51.494;5.386;2023-04-01T00:32:10;99091.19;;;19.10;46.87
61710;BME280;47633;51.494;5.386;2023-04-01T00:34:35;99090.56;;;19.08;46.91
61710;BME280;47633;51.494;5.386;2023-04-01T00:37:02;99086.91;;;19.09;46.92
61710;BME280;47633;51.494;5.386;2023-04-01T00:39:31;99093.53;;;19.05;46.92
61710;BME280;47633;51.494;5.386;2023-04-01T00:41:57;99089.06;;;19.05;46.92
61710;BME280;47633;51.494;5.386;2023-04-01T00:44:29;99097.81;;;19.06;47.04
61710;BME280;47633;51.494;5.386;2023-04-01T00:46:55;99098.81;;;19.05;47.05
61710;BME280;47633;51.494;5.386;2023-04-01T00:49:36;99106.75;;;19.05;46.91
61710;BME280;47633;51.494;5.386;2023-04-01T00:52:03;99103.25;;;19.04;46.98
61710;BME280;47633;51.494;5.386;2023-04-01T00:54:30;99111.16;;;19.04;47.05
61710;BME280;47633;51.494;5.386;2023-04-01T00:57:00;99107.06;;;19.01;47.04
61710;BME280;47633;51.494;5.386;2023-04-01T00:59:32;99111.34;;;19.02;47.03
61710;BME280;47633;51.494;5.386;2023-04-01T01:02:00;99110.06;;;18.98;46.81
61710;BME280;47633;51.494;5.386;2023-04-01T01:04:29;99119.47;;;19.01;46.99
61710;BME280;47633;51.494;5.386;2023-04-01T01:07:03;99115.34;;;18.98;46.90
61710;BME280;47633;51.494;5.386;2023-04-01T01:10:03;99116.16;;;18.99;47.05
61710;BME280;47633;51.494;5.386;2023-04-01T01:18:21;99119.81;;;18.98;46.94
61710;BME280;47633;51.494;5.386;2023-04-01T01:20:56;99121.59;;;18.97;46.86
61710;BME280;47633;51.494;5.386;2023-04-01T01:26:37;99126.06;;;18.97;46.76
61710;BME280;47633;51.494;5.386;2023-04-01T01:37:41;99116.38;;;18.89;47.01
61710;BME280;47633;51.494;5.386;2023-04-01T01:40:10;99130.03;;;18.93;46.99
61710;BME280;47633;51.494;5.386;2023-04-01T01:42:38;99132.84;;;18.91;47.06
61710;BME280;47633;51.494;5.386;2023-04-01T01:45:06;99136.50;;;18.90;47.01
61710;BME280;47633;51.494;5.386;2023-04-01T01:47:33;99131.56;;;18.87;47.24
61710;BME280;47633;51.494;5.386;2023-04-01T01:49:59;99141.94;;;18.89;47.16
61710;BME280;47633;51.494;5.386;2023-04-01T01:52:27;99145.22;;;18.91;47.28
61710;BME280;47633;51.494;5.386;2023-04-01T01:54:55;99144.41;;;18.90;47.13
61710;BME280;47633;51.494;5.386;2023-04-01T01:57:26;99144.75;;;18.87;47.03
61710;BME280;47633;51.494;5.386;2023-04-01T01:59:55;99150.50;;;18.91;47.00
61710;BME280;47633;51.494;5.386;2023-04-01T02:02:23;99149.19;;;18.87;47.01
61710;BME280;47633;51.494;5.386;2023-04-01T02:04:52;99140.28;;;18.79;47.13
61710;BME280;47633;51.494;5.386;2023-04-01T02:07:24;99163.06;;;18.89;46.95
61710;BME280;47633;51.494;5.386;2023-04-01T02:09:52;99164.03;;;18.88;47.10
61710;BME280;47633;51.494;5.386;2023-04-01T02:12:19;99161.41;;;18.88;47.21
61710;BME280;47633;51.494;5.386;2023-04-01T02:14:56;99169.50;;;18.86;47.15
61710;BME280;47633;51.494;5.386;2023-04-01T02:17:26;99169.50;;;18.86;47.16
61710;BME280;47633;51.494;5.386;2023-04-01T02:19:59;99166.03;;;18.85;46.93
61710;BME280;47633;51.494;5.386;2023-04-01T02:22:32;99167.88;;;18.85;47.02
61710;BME280;47633;51.494;5.386;2023-04-01T02:25:03;99164.53;;;18.83;46.97
61710;BME280;47633;51.494;5.386;2023-04-01T02:27:30;99169.66;;;18.84;47.02
61710;BME280;47633;51.494;5.386;2023-04-01T02:29:56;99167.16;;;18.83;46.88
61710;BME280;47633;51.494;5.386;2023-04-01T02:32:21;99168.00;;;18.83;47.06
61710;BME280;47633;51.494;5.386;2023-04-01T02:34:48;99169.97;;;18.81;46.99
61710;BME280;47633;51.494;5.386;2023-04-01T02:37:14;99166.22;;;18.84;47.02
61710;BME280;47633;51.494;5.386;2023-04-01T02:39:40;99170.97;;;18.80;47.00
61710;BME280;47633;51.494;5.386;2023-04-01T02:42:07;99180.53;;;18.81;47.04
61710;BME280;47633;51.494;5.386;2023-04-01T02:44:33;99169.31;;;18.79;46.99
61710;BME280;47633;51.494;5.386;2023-04-01T02:46:58;99166.50;;;18.81;47.06
61710;BME280;47633;51.494;5.386;2023-04-01T02:49:23;99173.44;;;18.82;46.95
61710;BME280;47633;51.494;5.386;2023-04-01T02:51:48;99174.25;;;18.82;46.99
61710;BME280;47633;51.494;5.386;2023-04-01T02:54:14;99179.88;;;18.79;46.86
61710;BME280;47633;51.494;5.386;2023-04-01T02:56:39;99180.03;;;18.78;47.16
61710;BME280;47633;51.494;5.386;2023-04-01T02:59:05;99180.22;;;18.76;46.61
61710;BME280;47633;51.494;5.386;2023-04-01T03:01:30;99174.13;;;18.76;46.66
61710;BME280;47633;51.494;5.386;2023-04-01T03:03:55;99182.69;;;18.78;47.04
61710;BME280;47633;51.494;5.386;2023-04-01T03:06:21;99182.84;;;18.76;47.10
61710;BME280;47633;51.494;5.386;2023-04-01T03:08:46;99188.78;;;18.78;46.93
61710;BME280;47633;51.494;5.386;2023-04-01T03:11:12;99186.47;;;18.75;46.76
61710;BME280;47633;51.494;5.386;2023-04-01T03:13:38;99190.13;;;18.74;46.82
61710;BME280;47633;51.494;5.386;2023-04-01T03:16:03;99200.69;;;18.74;46.93
61710;BME280;47633;51.494;5.386;2023-04-01T03:18:29;99202.31;;;18.75;46.90
61710;BME280;47633;51.494;5.386;2023-04-01T03:20:55;99203.16;;;18.76;46.99
61710;BME280;47633;51.494;5.386;2023-04-01T03:23:20;99201.84;;;18.72;46.97
61710;BME280;47633;51.494;5.386;2023-04-01T03:25:46;99210.41;;;18.74;46.63
61710;BME280;47633;51.494;5.386;2023-04-01T03:28:12;99206.94;;;18.73;47.05
61710;BME280;47633;51.494;5.386;2023-04-01T03:30:38;99210.41;;;18.74;46.92
61710;BME280;47633;51.494;5.386;2023-04-01T03:33:04;99208.94;;;18.71;47.02
61710;BME280;47633;51.494;5.386;2023-04-01T03:35:29;99217.66;;;18.72;46.99
61710;BME280;47633;51.494;5.386;2023-04-01T03:37:55;99210.72;;;18.71;46.96
61710;BME280;47633;51.494;5.386;2023-04-01T03:40:21;99217.81;;;18.70;46.91
61710;BME280;47633;51.494;5.386;2023-04-01T03:42:46;99215.84;;;18.72;46.90
61710;BME280;47633;51.494;5.386;2023-04-01T03:45:12;99216.00;;;18.71;47.18
61710;BME280;47633;51.494;5.386;2023-04-01T03:47:38;99215.84;;;18.72;47.04
61710;BME280;47633;51.494;5.386;2023-04-01T03:50:04;99223.91;;;18.71;47.20
61710;BME280;47633;51.494;5.386;2023-04-01T03:52:30;99214.53;;;18.68;46.95
61710;BME280;47633;51.494;5.386;2023-04-01T03:54:55;99223.09;;;18.70;46.99
61710;BME280;47633;51.494;5.386;2023-04-01T03:57:21;99226.56;;;18.71;47.21
61710;BME280;47633;51.494;5.386;2023-04-01T03:59:46;99225.75;;;18.70;46.83
61710;BME280;47633;51.494;5.386;2023-04-01T04:02:12;99228.56;;;18.68;46.77
61710;BME280;47633;51.494;5.386;2023-04-01T04:04:37;99218.81;;;18.69;46.81
61710;BME280;47633;51.494;5.386;2023-04-01T04:07:02;99227.41;;;18.71;46.92
61710;BME280;47633;51.494;5.386;2023-04-01T04:09:30;99238.13;;;18.70;47.05
61710;BME280;47633;51.494;5.386;2023-04-01T04:11:55;99241.75;;;18.68;46.93
61710;BME280;47633;51.494;5.386;2023-04-01T04:14:20;99242.56;;;18.69;46.91
61710;BME280;47633;51.494;5.386;2023-04-01T04:16:46;99243.41;;;18.70;46.90
61710;BME280;47633;51.494;5.386;2023-04-01T04:19:11;99245.19;;;18.69;46.79
61710;BME280;47633;51.494;5.386;2023-04-01T04:21:36;99250.47;;;18.69;46.79
61710;BME280;47633;51.494;5.386;2023-04-01T04:24:02;99249.66;;;18.68;46.80
61710;BME280;47633;51.494;5.386;2023-04-01T04:26:27;99255.75;;;18.69;46.92
61710;BME280;47633;51.494;5.386;2023-04-01T04:28:53;99262.22;;;18.66;46.93
61710;BME280;47633;51.494;5.386;2023-04-01T04:31:20;99256.28;;;18.64;46.86
61710;BME280;47633;51.494;5.386;2023-04-01T04:33:45;99257.09;;;18.65;46.87
61710;BME280;47633;51.494;5.386;2023-04-01T04:36:11;99261.56;;;18.64;46.76
61710;BME280;47633;51.494;5.386;2023-04-01T04:38:36;99262.22;;;18.66;46.99
61710;BME280;47633;51.494;5.386;2023-04-01T04:41:01;99258.91;;;18.64;46.76
61710;BME280;47633;51.494;5.386;2023-04-01T04:43:27;99266.00;;;18.64;46.73
61710;BME280;47633;51.494;5.386;2023-04-01T04:45:52;99262.53;;;18.63;46.86
61710;BME280;47633;51.494;5.386;2023-04-01T04:48:17;99271.25;;;18.64;46.76
61710;BME280;47633;51.494;5.386;2023-04-01T04:50:47;99275.72;;;18.63;46.75
61710;BME280;47633;51.494;5.386;2023-04-01T04:53:14;99279.19;;;18.64;46.94
61710;BME280;47633;51.494;5.386;2023-04-01T04:55:48;99277.72;;;18.61;46.85
61710;BME280;47633;51.494;5.386;2023-04-01T04:58:14;99279.50;;;18.61;46.71
61710;BME280;47633;51.494;5.386;2023-04-01T05:00:40;99289.09;;;18.62;46.69
61710;BME280;47633;51.494;5.386;2023-04-01T05:03:05;99286.44;;;18.62;46.83
61710;BME280;47633;51.494;5.386;2023-04-01T05:05:31;99289.41;;;18.59;46.63
61710;BME280;47633;51.494;5.386;2023-04-01T05:07:56;99293.72;;;18.60;46.85
61710;BME280;47633;51.494;5.386;2023-04-01T05:10:22;99299.81;;;18.60;46.77
61710;BME280;47633;51.494;5.386;2023-04-01T05:12:47;99293.88;;;18.58;46.78
61710;BME280;47633;51.494;5.386;2023-04-01T05:15:12;99300.28;;;18.56;46.91
61710;BME280;47633;51.494;5.386;2023-04-01T05:17:39;99303.91;;;18.55;46.86
61710;BME280;47633;51.494;5.386;2023-04-01T05:20:04;99304.59;;;18.57;46.99
61710;BME280;47633;51.494;5.386;2023-04-01T05:22:30;99306.22;;;18.58;47.00
61710;BME280;47633;51.494;5.386;2023-04-01T05:24:55;99313.97;;;18.59;46.37
61710;BME280;47633;51.494;5.386;2023-04-01T05:27:21;99319.94;;;18.61;46.77
61710;BME280;47633;51.494;5.386;2023-04-01T05:29:46;99318.91;;;18.62;47.03
61710;BME280;47633;51.494;5.386;2023-04-01T05:32:11;99317.94;;;18.63;46.86
61710;BME280;47633;51.494;5.386;2023-04-01T05:34:37;99322.06;;;18.66;46.93
61710;BME280;47633;51.494;5.386;2023-04-01T05:37:02;99335.09;;;18.67;47.11
61710;BME280;47633;51.494;5.386;2023-04-01T05:39:27;99328.66;;;18.70;46.99
61710;BME280;47633;51.494;5.386;2023-04-01T05:41:53;99334.75;;;18.71;46.93
61710;BME280;47633;51.494;5.386;2023-04-01T05:44:18;99343.03;;;18.76;47.03
61710;BME280;47633;51.494;5.386;2023-04-01T05:46:43;99346.63;;;18.75;46.90
61710;BME280;47633;51.494;5.386;2023-04-01T05:49:09;99355.91;;;18.79;46.92
61710;BME280;47633;51.494;5.386;2023-04-01T05:51:34;99361.97;;;18.79;47.01
61710;BME280;47633;51.494;5.386;2023-04-01T05:53:59;99363.31;;;18.83;46.82
61710;BME280;47633;51.494;5.386;2023-04-01T05:56:25;99362.47;;;18.83;46.92
61710;BME280;47633;51.494;5.386;2023-04-01T05:58:52;99366.31;;;18.89;46.85
61710;BME280;47633;51.494;5.386;2023-04-01T06:01:18;99363.84;;;18.87;46.81
61710;BME280;47633;51.494;5.386;2023-04-01T06:03:43;99367.13;;;18.89;46.85
61710;BME280;47633;51.494;5.386;2023-04-01T06:06:22;99385.59;;;18.89;46.66
61710;BME280;47633;51.494;5.386;2023-04-01T06:08:48;99382.63;;;18.92;46.71
61710;BME280;47633;51.494;5.386;2023-04-01T06:19:31;99405.09;;;18.96;46.73
61710;BME280;47633;51.494;5.386;2023-04-01T06:24:59;99410.03;;;18.99;46.59
61710;BME280;47633;51.494;5.386;2023-04-01T06:33:14;99417.78;;;19.01;46.49
61710;BME280;47633;51.494;5.386;2023-04-01T06:41:26;99420.25;;;19.02;47.03
61710;BME280;47633;51.494;5.386;2023-04-01T06:47:38;99436.09;;;19.02;47.00
61710;BME280;47633;51.494;5.386;2023-04-01T06:52:50;99443.84;;;19.04;47.31
61710;BME280;47633;51.494;5.386;2023-04-01T06:55:26;99444.00;;;19.02;47.17
61710;BME280;47633;51.494;5.386;2023-04-01T06:57:55;99449.13;;;19.04;47.12
61710;BME280;47633;51.494;5.386;2023-04-01T07:00:32;99454.41;;;19.04;47.20
61710;BME280;47633;51.494;5.386;2023-04-01T07:03:20;99451.44;;;18.99;47.46
61710;BME280;47633;51.494;5.386;2023-04-01T07:05:47;99466.94;;;19.02;47.18
61710;BME280;47633;51.494;5.386;2023-04-01T07:08:25;99466.78;;;19.03;47.47
61710;BME280;47633;51.494;5.386;2023-04-01T07:11:06;99465.97;;;19.03;47.68
61710;BME280;47633;51.494;5.386;2023-04-01T07:13:51;99470.25;;;19.04;47.68
61710;BME280;47633;51.494;5.386;2023-04-01T07:16:25;99471.91;;;19.05;47.47
61710;BME280;47633;51.494;5.386;2023-04-01T07:21:46;99474.06;;;19.01;47.62
61710;BME280;47633;51.494;5.386;2023-04-01T07:24:24;99480.97;;;19.02;47.52
61710;BME280;47633;51.494;5.386;2023-04-01T07:26:54;99480.16;;;19.02;47.55
61710;BME280;47633;51.494;5.386;2023-04-01T07:29:20;99484.63;;;19.01;47.35
61710;BME280;47633;51.494;5.386;2023-04-01T07:37:12;99505.41;;;19.05;47.86
61710;BME280;47633;51.494;5.386;2023-04-01T07:40:09;99511.50;;;19.05;48.08
61710;BME280;47633;51.494;5.386;2023-04-01T07:42:53;99514.16;;;19.05;48.77
61710;BME280;47633;51.494;5.386;2023-04-01T07:45:50;99515.81;;;19.06;49.58
61710;BME280;47633;51.494;5.386;2023-04-01T07:48:25;99513.00;;;19.08;49.86
61710;BME280;47633;51.494;5.386;2023-04-01T07:51:02;99521.59;;;19.10;49.88
61710;BME280;47633;51.494;5.386;2023-04-01T07:53:36;99526.06;;;19.09;50.21
61710;BME280;47633;51.494;5.386;2023-04-01T07:56:18;99526.22;;;19.08;50.13
61710;BME280;47633;51.494;5.386;2023-04-01T07:58:55;99537.28;;;19.11;49.76
61710;BME280;47633;51.494;5.386;2023-04-01T08:15:33;99560.06;;;19.12;50.30
61710;BME280;47633;51.494;5.386;2023-04-01T08:20:39;99565.34;;;19.12;50.19
61710;BME280;47633;51.494;5.386;2023-04-01T08:23:14;99569.63;;;19.13;50.12
61710;BME280;47633;51.494;5.386;2023-04-01T08:25:58;99574.91;;;19.13;50.38
61710;BME280;47633;51.494;5.386;2023-04-01T08:28:37;99583.50;;;19.15;50.06
61710;BME280;47633;51.494;5.386;2023-04-01T08:31:12;99580.72;;;19.17;50.01
61710;BME280;47633;51.494;5.386;2023-04-01T08:33:40;99579.22;;;19.14;50.03
61710;BME280;47633;51.494;5.386;2023-04-01T08:36:10;99575.75;;;19.14;50.36
61710;BME280;47633;51.494;5.386;2023-04-01T08:38:43;99588.09;;;19.13;50.40
61710;BME280;47633;51.494;5.386;2023-04-01T08:47:13;99594.88;;;19.16;50.47
61710;BME280;47633;51.494;5.386;2023-04-01T08:50:05;99602.66;;;19.17;50.23
61710;BME280;47633;51.494;5.386;2023-04-01T08:55:31;99613.06;;;19.19;50.38
61710;BME280;47633;51.494;5.386;2023-04-01T09:04:32;99627.72;;;19.21;50.24
61710;BME280;47633;51.494;5.386;2023-04-01T09:07:40;99632.19;;;19.21;50.19
61710;BME280;47633;51.494;5.386;2023-04-01T09:13:05;99635.00;;;19.19;50.21
61710;BME280;47633;51.494;5.386;2023-04-01T09:15:42;99640.31;;;19.28;50.16
61710;BME280;47633;51.494;5.386;2023-04-01T09:18:20;99643.00;;;19.36;49.76
61710;BME280;47633;51.494;5.386;2023-04-01T09:26:16;99648.59;;;19.41;49.54
61710;BME280;47633;51.494;5.386;2023-04-01T09:39:55;99661.28;;;19.37;49.50
61710;BME280;47633;51.494;5.386;2023-04-01T09:43:00;99662.47;;;19.35;49.47
61710;BME280;47633;51.494;5.386;2023-04-01T09:54:20;99673.34;;;19.32;49.33
61710;BME280;47633;51.494;5.386;2023-04-01T09:57:07;99681.94;;;19.34;49.38
61710;BME280;47633;51.494;5.386;2023-04-01T09:59:48;99685.41;;;19.34;49.40
61710;BME280;47633;51.494;5.386;2023-04-01T10:02:50;99691.19;;;19.38;49.05
61710;BME280;47633;51.494;5.386;2023-04-01T10:11:30;99701.44;;;19.41;48.96
61710;BME280;47633;51.494;5.386;2023-04-01T10:17:22;99703.44;;;19.47;49.04
61710;BME280;47633;51.494;5.386;2023-04-01T10:36:40;99730.38;;;19.51;48.84
61710;BME280;47633;51.494;5.386;2023-04-01T10:39:33;99725.09;;;19.51;48.77
61710;BME280;47633;51.494;5.386;2023-04-01T10:44:51;99726.22;;;19.48;48.75
61710;BME280;47633;51.494;5.386;2023-04-01T10:47:36;99730.69;;;19.48;48.82
61710;BME280;47633;51.494;5.386;2023-04-01T10:55:54;99746.03;;;19.44;49.05
61710;BME280;47633;51.494;5.386;2023-04-01T11:04:39;99740.75;;;19.36;49.28
61710;BME280;47633;51.494;5.386;2023-04-01T11:21:42;99767.03;;;19.46;49.03
61710;BME280;47633;51.494;5.386;2023-04-01T11:38:22;99774.72;;;19.39;49.30
61710;BME280;47633;51.494;5.386;2023-04-01T11:41:20;99780.53;;;19.34;49.41
61710;BME280;47633;51.494;5.386;2023-04-01T11:44:08;99783.81;;;19.36;49.34
61710;BME280;47633;51.494;5.386;2023-04-01T11:46:42;99789.78;;;19.38;49.32
61710;BME280;47633;51.494;5.386;2023-04-01T11:55:14;99786.16;;;19.39;49.34
61710;BME280;47633;51.494;5.386;2023-04-01T11:57:52;99804.81;;;19.38;49.10
61710;BME280;47633;51.494;5.386;2023-04-01T12:00:30;99801.66;;;19.34;49.27
61710;BME280;47633;51.494;5.386;2023-04-01T12:03:21;99799.00;;;19.34;49.12
61710;BME280;47633;51.494;5.386;2023-04-01T12:05:58;99800.97;;;19.32;48.85
61710;BME280;47633;51.494;5.386;2023-04-01T12:09:00;99820.00;;;19.36;48.92
61710;BME280;47633;51.494;5.386;2023-04-01T12:16:55;99822.94;;;19.33;49.05
61710;BME280;47633;51.494;5.386;2023-04-01T12:19:39;99817.81;;;19.31;48.83
61710;BME280;47633;51.494;5.386;2023-04-01T12:22:34;99826.72;;;19.30;48.75
61710;BME280;47633;51.494;5.386;2023-04-01T12:39:21;99840.19;;;19.19;49.14
61710;BME280;47633;51.494;5.386;2023-04-01T12:44:45;99848.44;;;19.16;49.24
61710;BME280;47633;51.494;5.386;2023-04-01T12:55:50;99867.72;;;19.16;49.26
61710;BME280;47633;51.494;5.386;2023-04-01T12:58:38;99860.13;;;19.13;49.38
61710;BME280;47633;51.494;5.386;2023-04-01T13:01:28;99868.03;;;19.13;49.28
61710;BME280;47633;51.494;5.386;2023-04-01T13:04:30;99862.75;;;19.13;49.24
61710;BME280;47633;51.494;5.386;2023-04-01T13:07:22;99863.91;;;19.11;49.41
61710;BME280;47633;51.494;5.386;2023-04-01T13:10:02;99869.34;;;19.09;49.35
61710;BME280;47633;51.494;5.386;2023-04-01T13:15:35;99879.06;;;19.09;49.37
61710;BME280;47633;51.494;5.386;2023-04-01T13:29:57;99894.44;;;19.13;49.26
61710;BME280;47633;51.494;5.386;2023-04-01T13:32:30;99891.00;;;19.13;49.52
61710;BME280;47633;51.494;5.386;2023-04-01T13:35:20;99896.56;;;19.10;49.47
61710;BME280;47633;51.494;5.386;2023-04-01T13:38:12;99903.69;;;19.09;49.21
61710;BME280;47633;51.494;5.386;2023-04-01T13:40:45;99907.97;;;19.10;49.45
61710;BME280;47633;51.494;5.386;2023-04-01T13:43:19;99903.69;;;19.09;49.25
61710;BME280;47633;51.494;5.386;2023-04-01T13:51:40;99913.25;;;19.10;49.47
61710;BME280;47633;51.494;5.386;2023-04-01T13:54:38;99913.03;;;19.03;49.66
61710;BME280;47633;51.494;5.386;2023-04-01T13:59:59;99921.63;;;19.06;49.63
61710;BME280;47633;51.494;5.386;2023-04-01T14:05:47;99922.47;;;19.06;49.60
61710;BME280;47633;51.494;5.386;2023-04-01T14:22:11;99948.19;;;19.04;49.82
61710;BME280;47633;51.494;5.386;2023-04-01T14:24:57;99953.47;;;19.04;49.74
61710;BME280;47633;51.494;5.386;2023-04-01T14:27:39;99947.38;;;19.03;49.77
61710;BME280;47633;51.494;5.386;2023-04-01T14:30:27;99956.09;;;19.04;49.67
61710;BME280;47633;51.494;5.386;2023-04-01T14:39:09;99957.25;;;19.01;49.95
61710;BME280;47633;51.494;5.386;2023-04-01T14:41:51;99961.53;;;19.02;50.12
61710;BME280;47633;51.494;5.386;2023-04-01T14:47:20;99962.22;;;19.05;49.92
61710;BME280;47633;51.494;5.386;2023-04-01T14:49:53;99970.16;;;19.05;50.29
61710;BME280;47633;51.494;5.386;2023-04-01T14:52:27;99979.06;;;19.03;50.69
61710;BME280;47633;51.494;5.386;2023-04-01T14:54:54;99985.69;;;19.08;50.70
61710;BME280;47633;51.494;5.386;2023-04-01T14:57:24;99982.22;;;19.07;50.89
61710;BME280;47633;51.494;5.386;2023-04-01T15:00:00;99992.16;;;19.13;50.78
61710;BME280;47633;51.494;5.386;2023-04-01T15:08:05;99993.44;;;19.27;51.20
61710;BME280;47633;51.494;5.386;2023-04-01T15:10:53;99992.03;;;19.33;50.96
61710;BME280;47633;51.494;5.386;2023-04-01T15:24:16;100013.47;;;19.56;50.58
61710;BME280;47633;51.494;5.386;2023-04-01T15:26:58;100011.50;;;19.58;50.95
61710;BME280;47633;51.494;5.386;2023-04-01T15:29:39;100016.56;;;19.69;50.70
61710;BME280;47633;51.494;5.386;2023-04-01T15:41:03;100026.91;;;19.81;52.10
61710;BME280;47633;51.494;5.386;2023-04-01T15:43:46;100029.88;;;19.78;51.96
61710;BME280;47633;51.494;5.386;2023-04-01T15:49:04;100034.84;;;19.81;51.60
61710;BME280;47633;51.494;5.386;2023-04-01T15:51:41;100036.81;;;19.79;51.77
61710;BME280;47633;51.494;5.386;2023-04-01T16:00:06;100043.59;;;19.81;51.16
61710;BME280;47633;51.494;5.386;2023-04-01T16:11:09;100052.19;;;19.83;50.99
61710;BME280;47633;51.494;5.386;2023-04-01T16:19:55;100063.63;;;19.84;51.40
61710;BME280;47633;51.494;5.386;2023-04-01T16:22:46;100063.63;;;19.84;51.32
61710;BME280;47633;51.494;5.386;2023-04-01T16:25:20;100067.09;;;19.84;51.34
61710;BME280;47633;51.494;5.386;2023-04-01T16:30:37;100064.13;;;19.87;51.20
61710;BME280;47633;51.494;5.386;2023-04-01T16:33:12;100067.09;;;19.84;51.33
61710;BME280;47633;51.494;5.386;2023-04-01T16:36:00;100055.53;;;19.85;51.07
61710;BME280;47633;51.494;5.386;2023-04-01T16:38:37;100072.91;;;19.88;51.11
61710;BME280;47633;51.494;5.386;2023-04-01T16:41:11;100062.47;;;19.86;51.11
61710;BME280;47633;51.494;5.386;2023-04-01T16:46:28;100067.13;;;19.92;50.74
61710;BME280;47633;51.494;5.386;2023-04-01T16:51:52;100087.63;;;19.90;51.11
61710;BME280;47633;51.494;5.386;2023-04-01T16:57:01;100094.41;;;19.93;51.08
61710;BME280;47633;51.494;5.386;2023-04-01T16:59:36;100086.63;;;19.91;51.07
61710;BME280;47633;51.494;5.386;2023-04-01T17:04:47;100113.78;;;19.93;51.00
61710;BME280;47633;51.494;5.386;2023-04-01T17:10:10;100116.09;;;19.97;51.28
61710;BME280;47633;51.494;5.386;2023-04-01T17:12:59;100131.13;;;19.96;51.21
61710;BME280;47633;51.494;5.386;2023-04-01T17:21:07;100142.09;;;20.01;51.03
61710;BME280;47633;51.494;5.386;2023-04-01T17:23:39;100150.69;;;20.03;50.88
61710;BME280;47633;51.494;5.386;2023-04-01T17:26:37;100150.84;;;20.02;50.87
61710;BME280;47633;51.494;5.386;2023-04-01T17:34:26;100166.63;;;20.11;50.43
61710;BME280;47633;51.494;5.386;2023-04-01T17:37:12;100172.88;;;20.10;50.61
61710;BME280;47633;51.494;5.386;2023-04-01T17:39:49;100178.19;;;20.10;50.76
61710;BME280;47633;51.494;5.386;2023-04-01T17:42:27;100187.28;;;20.08;50.80
61710;BME280;47633;51.494;5.386;2023-04-01T17:47:46;100197.84;;;20.08;50.85
61710;BME280;47633;51.494;5.386;2023-04-01T17:50:20;100204.31;;;20.14;50.91
61710;BME280;47633;51.494;5.386;2023-04-01T18:04:00;100235.25;;;20.13;50.73
61710;BME280;47633;51.494;5.386;2023-04-01T18:15:12;100255.03;;;20.09;51.05
61710;BME280;47633;51.494;5.386;2023-04-01T18:20:50;100264.66;;;20.10;50.58
61710;BME280;47633;51.494;5.386;2023-04-01T18:23:29;100270.91;;;20.09;51.21
61710;BME280;47633;51.494;5.386;2023-04-01T18:26:33;100277.19;;;20.08;50.95
61710;BME280;47633;51.494;5.386;2023-04-01T18:29:04;100288.75;;;20.07;50.84
61710;BME280;47633;51.494;5.386;2023-04-01T18:31:41;100293.06;;;20.08;50.86
61710;BME280;47633;51.494;5.386;2023-04-01T18:37:19;100307.41;;;20.05;51.21
61710;BME280;47633;51.494;5.386;2023-04-01T18:39:52;100308.56;;;20.03;50.90
61710;BME280;47633;51.494;5.386;2023-04-01T18:47:55;100330.56;;;20.03;51.26
61710;BME280;47633;51.494;5.386;2023-04-01T18:50:38;100336.81;;;20.02;50.90
61710;BME280;47633;51.494;5.386;2023-04-01T18:53:12;100343.78;;;20.03;50.97
61710;BME280;47633;51.494;5.386;2023-04-01T18:55:48;100352.69;;;20.02;51.09
61710;BME280;47633;51.494;5.386;2023-04-01T18:58:26;100366.91;;;20.01;51.15
61710;BME280;47633;51.494;5.386;2023-04-01T19:06:44;100388.88;;;20.02;51.16
61710;BME280;47633;51.494;5.386;2023-04-01T19:09:21;100387.22;;;20.01;51.02
61710;BME280;47633;51.494;5.386;2023-04-01T19:17:26;100401.72;;;19.97;51.45
61710;BME280;47633;51.494;5.386;2023-04-01T19:22:54;100423.03;;;19.95;51.20
61710;BME280;47633;51.494;5.386;2023-04-01T19:29:36;100430.97;;;19.95;51.47
61710;BME280;47633;51.494;5.386;2023-04-01T19:31:46;100434.59;;;19.94;51.41
61710;BME280;47633;51.494;5.386;2023-04-01T19:36:54;100447.81;;;19.94;51.20
61710;BME280;47633;51.494;5.386;2023-04-01T19:42:32;100459.50;;;19.91;51.59
61710;BME280;47633;51.494;5.386;2023-04-01T19:48:00;100464.66;;;19.93;51.57
61710;BME280;47633;51.494;5.386;2023-04-01T19:50:38;100472.56;;;19.93;51.32
61710;BME280;47633;51.494;5.386;2023-04-01T19:53:29;100476.06;;;19.93;51.74
61710;BME280;47633;51.494;5.386;2023-04-01T19:56:14;100484.00;;;19.93;51.34
61710;BME280;47633;51.494;5.386;2023-04-01T19:59:05;100489.31;;;19.93;51.34
61710;BME280;47633;51.494;5.386;2023-04-01T20:01:50;100496.25;;;19.94;51.26
61710;BME280;47633;51.494;5.386;2023-04-01T20:04:26;100504.47;;;19.91;51.52
61710;BME280;47633;51.494;5.386;2023-04-01T20:09:57;100519.66;;;19.89;51.24
61710;BME280;47633;51.494;5.386;2023-04-01T20:12:59;100521.31;;;19.90;51.37
61710;BME280;47633;51.494;5.386;2023-04-01T20:15:33;100530.91;;;19.91;51.48
61710;BME280;47633;51.494;5.386;2023-04-01T20:18:04;100525.75;;;19.90;51.08